createdAt,value
2019-03-20T00:01:04.185Z,143.60
2019-03-20T00:03:34.744Z,138.33
2019-03-20T00:06:05.128Z,142.13
2019-03-20T00:08:35.701Z,150.53
2019-03-20T00:11:06.387Z,134.37
2019-03-20T00:13:36.999Z,134.37
2019-03-20T00:16:07.774Z,136.33
2019-03-20T00:18:38.286Z,136.90
2019-03-20T00:21:08.884Z,129.50
2019-03-20T00:23:39.546Z,144.83
2019-03-20T00:26:10.153Z,142.20
2019-03-20T00:28:40.683Z,151.70
2019-03-20T00:31:11.265Z,145.70
2019-03-20T00:33:41.973Z,138.63
2019-03-20T00:36:12.514Z,128.80
2019-03-20T00:38:43.024Z,110.40
2019-03-20T00:41:13.608Z,112.63
2019-03-20T00:43:44.113Z,121.93
2019-03-20T00:46:14.879Z,115.70
2019-03-20T00:48:45.714Z,109.47
2019-03-20T00:51:16.468Z,120.57
2019-03-20T00:53:47.128Z,122.53
2019-03-20T00:56:17.588Z,119.57
2019-03-20T00:58:48.194Z,147.03
2019-03-20T01:01:18.790Z,132.83
2019-03-20T01:03:49.284Z,135.97
2019-03-20T01:06:19.947Z,127.53
2019-03-20T01:08:50.579Z,138.60
2019-03-20T01:11:21.049Z,153.03
2019-03-20T01:13:51.632Z,139.37
2019-03-20T01:16:22.341Z,146.67
2019-03-20T01:18:52.974Z,140.27
2019-03-20T01:21:23.476Z,139.37
2019-03-20T01:23:54.053Z,138.90
2019-03-20T01:26:24.689Z,130.97
2019-03-20T01:28:55.332Z,153.53
2019-03-20T01:31:25.708Z,168.57
2019-03-20T01:33:56.188Z,144.80
2019-03-20T01:36:27.462Z,145.57
2019-03-20T01:38:57.987Z,143.00
2019-03-20T01:41:37.597Z,143.97
2019-03-20T01:44:00.913Z,132.13
2019-03-20T01:46:31.410Z,141.80
2019-03-20T01:49:01.878Z,139.50
2019-03-20T01:51:32.530Z,140.60
2019-03-20T01:54:02.871Z,145.67
2019-03-20T01:56:33.478Z,158.93
2019-03-20T01:59:03.898Z,155.23
2019-03-20T02:01:34.392Z,156.27
2019-03-20T02:04:04.919Z,173.53
2019-03-20T02:06:35.374Z,176.33
2019-03-20T02:09:08.088Z,147.13
2019-03-20T02:11:38.572Z,154.40
2019-03-20T02:14:09.077Z,157.13
2019-03-20T02:16:39.516Z,139.40
2019-03-20T02:19:10.068Z,150.43
2019-03-20T02:21:40.723Z,144.57
2019-03-20T02:24:11.198Z,159.10
2019-03-20T02:26:41.824Z,151.43
2019-03-20T02:29:12.404Z,137.03
2019-03-20T02:31:42.843Z,137.63
2019-03-20T02:34:13.261Z,137.50
2019-03-20T02:36:43.829Z,133.40
2019-03-20T02:39:14.176Z,132.77
2019-03-20T02:41:44.585Z,160.37
2019-03-20T02:44:15.114Z,139.27
2019-03-20T02:46:45.585Z,138.17
2019-03-20T02:49:16.005Z,126.90
2019-03-20T02:51:46.515Z,128.13
2019-03-20T02:54:16.911Z,109.53
2019-03-20T02:56:47.759Z,89.43
2019-03-20T02:59:18.154Z,74.87
2019-03-20T03:01:48.864Z,72.37
2019-03-20T03:04:19.446Z,59.37
2019-03-20T03:06:50.008Z,62.20
2019-03-20T03:09:20.528Z,55.07
2019-03-20T03:11:51.065Z,51.83
2019-03-20T03:14:21.545Z,41.53
2019-03-20T03:16:52.021Z,51.70
2019-03-20T03:19:22.785Z,51.03
2019-03-20T03:21:53.398Z,45.43
2019-03-20T03:24:23.938Z,50.87
2019-03-20T03:26:54.504Z,50.17
2019-03-20T03:29:25.690Z,46.03
2019-03-20T03:31:56.285Z,46.63
2019-03-20T03:34:26.850Z,52.33
2019-03-20T03:36:57.394Z,52.80
2019-03-20T03:39:27.898Z,50.43
2019-03-20T03:41:58.326Z,53.07
2019-03-20T03:44:28.750Z,55.27
2019-03-20T03:46:59.194Z,57.93
2019-03-20T03:49:29.711Z,70.93
2019-03-20T03:52:00.215Z,93.57
2019-03-20T03:54:30.661Z,120.90
2019-03-20T03:57:01.295Z,125.17
2019-03-20T03:59:31.875Z,144.23
2019-03-20T04:02:02.384Z,129.97
2019-03-20T04:04:32.985Z,113.27
2019-03-20T04:07:03.410Z,101.37
2019-03-20T04:09:34.101Z,104.90
2019-03-20T04:12:04.856Z,74.80
2019-03-20T04:14:35.314Z,68.70
2019-03-20T04:17:26.395Z,58.03
2019-03-20T04:19:57.013Z,61.13
2019-03-20T04:22:27.808Z,60.93
2019-03-20T04:24:58.334Z,63.27
2019-03-20T04:27:28.925Z,60.30
2019-03-20T04:29:59.594Z,57.47
2019-03-20T04:32:30.230Z,60.57
2019-03-20T04:35:01.197Z,65.40
2019-03-20T04:37:31.688Z,71.23
2019-03-20T04:40:02.269Z,64.97
2019-03-20T04:42:32.845Z,61.33
2019-03-20T04:45:03.301Z,59.03
2019-03-20T04:47:33.799Z,67.67
2019-03-20T04:50:05.354Z,59.77
2019-03-20T04:52:36.145Z,55.83
2019-03-20T04:55:07.220Z,53.73
2019-03-20T04:57:37.791Z,57.50
2019-03-20T05:00:11.480Z,65.67
2019-03-20T05:02:42.223Z,61.67
2019-03-20T05:05:13.094Z,65.60
2019-03-20T05:07:43.808Z,66.40
2019-03-20T05:10:14.763Z,80.40
2019-03-20T05:12:45.491Z,115.13
2019-03-20T05:15:16.182Z,128.90
2019-03-20T05:17:46.927Z,103.97
2019-03-20T05:20:17.459Z,104.23
2019-03-20T05:22:48.003Z,103.80
2019-03-20T05:25:18.724Z,96.40
2019-03-20T05:27:49.197Z,89.30
2019-03-20T05:30:20.117Z,117.07
2019-03-20T05:32:50.956Z,98.47
2019-03-20T05:35:22.308Z,92.30
2019-03-20T05:37:52.853Z,105.83
2019-03-20T05:40:23.469Z,100.40
2019-03-20T05:42:54.194Z,92.77
2019-03-20T05:45:27.659Z,80.73
2019-03-20T05:47:58.225Z,64.07
2019-03-20T05:50:28.928Z,72.20
2019-03-20T05:53:06.263Z,75.33
2019-03-20T05:55:37.103Z,71.07
2019-03-20T05:58:08.076Z,56.13
2019-03-20T06:00:39.251Z,62.63
2019-03-20T06:03:09.818Z,56.80
2019-03-20T06:05:40.436Z,57.43
2019-03-20T06:08:11.065Z,50.50
2019-03-20T06:10:41.539Z,51.63
2019-03-20T06:13:12.014Z,50.80
2019-03-20T06:15:42.526Z,50.93
2019-03-20T06:18:12.960Z,50.30
2019-03-20T06:20:43.692Z,47.03
2019-03-20T06:23:14.388Z,47.73
2019-03-20T06:25:44.964Z,54.07
2019-03-20T06:28:15.597Z,46.83
2019-03-20T06:30:46.256Z,48.10
2019-03-20T06:33:16.726Z,52.87
2019-03-20T06:35:47.718Z,57.77
2019-03-20T06:38:18.169Z,52.20
2019-03-20T06:40:48.540Z,59.13
2019-03-20T06:43:19.188Z,56.00
2019-03-20T06:45:49.724Z,66.83
2019-03-20T06:48:20.500Z,61.07
2019-03-20T06:50:51.143Z,52.00
2019-03-20T06:53:21.869Z,61.13
2019-03-20T06:55:52.477Z,55.10
2019-03-20T06:58:23.228Z,66.07
2019-03-20T07:01:11.059Z,60.73
2019-03-20T07:04:12.412Z,57.10
2019-03-20T07:07:08.480Z,55.03
2019-03-20T07:10:20.835Z,58.37
2019-03-20T07:12:51.349Z,63.30
2019-03-20T07:15:21.938Z,67.50
2019-03-20T07:17:52.622Z,59.67
2019-03-20T07:20:23.210Z,75.30
2019-03-20T07:22:53.746Z,64.07
2019-03-20T07:25:24.422Z,82.23
2019-03-20T07:27:54.957Z,50.50
2019-03-20T07:30:25.506Z,43.03
2019-03-20T07:32:56.119Z,42.07
2019-03-20T07:35:26.712Z,40.30
2019-03-20T07:37:57.574Z,41.57
2019-03-20T07:40:28.174Z,40.20
2019-03-20T07:43:08.339Z,38.43
2019-03-20T07:45:31.278Z,40.63
2019-03-20T07:48:01.780Z,34.63
2019-03-20T07:50:32.239Z,32.63
2019-03-20T07:53:03.636Z,32.77
2019-03-20T07:55:34.204Z,31.93
2019-03-20T07:58:04.818Z,28.27
2019-03-20T08:00:35.481Z,24.93
2019-03-20T08:03:06.259Z,28.03
2019-03-20T08:05:36.846Z,27.10
2019-03-20T08:08:07.967Z,29.63
2019-03-20T08:10:38.584Z,30.83
2019-03-20T08:13:09.270Z,31.10
2019-03-20T08:15:40.568Z,27.57
2019-03-20T08:18:11.055Z,34.47
2019-03-20T08:20:41.760Z,28.60
2019-03-20T08:23:12.403Z,31.47
2019-03-20T08:25:42.811Z,27.47
2019-03-20T08:28:13.426Z,30.07
2019-03-20T08:30:43.853Z,33.23
2019-03-20T08:33:14.341Z,27.67
2019-03-20T08:35:44.850Z,31.80
2019-03-20T08:38:18.607Z,31.80
2019-03-20T08:40:48.121Z,32.87
2019-03-20T08:43:18.782Z,27.37
2019-03-20T08:45:49.448Z,33.53
2019-03-20T08:48:19.951Z,28.17
2019-03-20T08:50:50.613Z,31.47
2019-03-20T08:53:21.110Z,28.33
2019-03-20T08:55:51.675Z,30.40
2019-03-20T08:58:22.224Z,27.30
2019-03-20T09:00:52.828Z,28.43
2019-03-20T09:03:23.255Z,21.97
2019-03-20T09:05:53.725Z,23.90
2019-03-20T09:08:29.429Z,19.53
2019-03-20T09:10:56.575Z,23.63
2019-03-20T09:13:27.193Z,22.23
2019-03-20T09:15:57.711Z,15.27
2019-03-20T09:18:28.396Z,14.33
2019-03-20T09:20:59.018Z,14.00
2019-03-20T09:23:29.613Z,15.27
2019-03-20T09:26:00.128Z,15.97
2019-03-20T09:28:30.645Z,12.27
2019-03-20T09:31:01.191Z,9.83
2019-03-20T09:33:31.808Z,13.33
2019-03-20T09:36:02.475Z,12.03
2019-03-20T09:38:42.988Z,10.60
2019-03-20T09:41:05.300Z,9.63
2019-03-20T09:43:35.777Z,11.97
2019-03-20T09:46:06.724Z,12.03
2019-03-20T09:48:37.198Z,11.33
2019-03-20T09:51:07.748Z,13.40
2019-03-20T09:53:38.323Z,13.90
2019-03-20T09:56:08.750Z,10.93
2019-03-20T09:58:39.280Z,8.07
2019-03-20T10:01:09.775Z,9.27
2019-03-20T10:03:40.503Z,10.23
2019-03-20T10:06:11.110Z,12.17
2019-03-20T10:08:41.637Z,15.80
2019-03-20T10:11:12.302Z,8.20
2019-03-20T10:13:42.962Z,8.77
2019-03-20T10:16:13.446Z,8.10
2019-03-20T10:18:44.079Z,9.20
2019-03-20T10:21:14.529Z,6.70
2019-03-20T10:23:44.918Z,5.23
2019-03-20T10:26:15.340Z,6.27
2019-03-20T10:28:45.804Z,5.83
2019-03-20T10:31:16.315Z,7.60
2019-03-20T10:33:46.863Z,7.23
2019-03-20T10:36:17.218Z,9.80
2019-03-20T10:38:48.819Z,5.27
2019-03-20T10:41:19.427Z,5.67
2019-03-20T10:43:52.254Z,6.63
2019-03-20T10:46:22.251Z,6.70
2019-03-20T10:48:53.226Z,5.17
2019-03-20T10:51:23.715Z,6.07
2019-03-20T10:53:54.332Z,7.70
2019-03-20T10:56:24.719Z,20.50
2019-03-20T10:58:55.279Z,7.57
2019-03-20T11:01:25.808Z,20.87
2019-03-20T11:03:56.216Z,12.60
2019-03-20T11:06:26.904Z,9.67
2019-03-20T11:08:57.336Z,8.03
2019-03-20T11:11:28.093Z,6.80
2019-03-20T11:13:58.815Z,7.37
2019-03-20T11:16:29.251Z,8.17
2019-03-20T11:18:59.581Z,11.87
2019-03-20T11:21:30.226Z,4.40
2019-03-20T11:24:00.664Z,8.50
2019-03-20T11:26:32.476Z,8.80
2019-03-20T11:29:03.249Z,8.60
2019-03-20T11:31:33.797Z,7.00
2019-03-20T11:34:04.536Z,13.00
2019-03-20T11:36:35.040Z,7.00
2019-03-20T11:39:09.048Z,11.13
2019-03-20T11:41:39.651Z,8.50
2019-03-20T11:44:10.378Z,7.30
2019-03-20T11:46:40.894Z,7.50
2019-03-20T11:49:11.255Z,8.87
2019-03-20T11:51:41.840Z,5.87
2019-03-20T11:54:12.294Z,3.97
2019-03-20T11:56:42.735Z,10.83
2019-03-20T11:59:15.802Z,6.87
2019-03-20T12:01:46.284Z,5.83
2019-03-20T12:04:16.937Z,8.20
2019-03-20T12:06:47.394Z,6.40
2019-03-20T12:09:17.843Z,7.67
2019-03-20T12:11:48.324Z,8.80
2019-03-20T12:14:18.868Z,6.30
2019-03-20T12:16:49.538Z,10.70
2019-03-20T12:19:20.087Z,7.47
2019-03-20T12:21:50.524Z,6.77
2019-03-20T12:24:21.054Z,7.30
2019-03-20T12:26:51.999Z,6.43
2019-03-20T12:29:22.508Z,8.50
2019-03-20T12:31:52.973Z,7.23
2019-03-20T12:34:23.425Z,13.60
2019-03-20T12:36:56.474Z,7.47
2019-03-20T12:39:26.383Z,10.23
2019-03-20T12:41:56.936Z,10.87
2019-03-20T12:44:27.529Z,6.83
2019-03-20T12:46:57.905Z,8.57
2019-03-20T12:49:29.068Z,7.20
2019-03-20T12:51:59.663Z,5.80
2019-03-20T12:54:30.034Z,7.40
2019-03-20T12:57:00.517Z,10.77
2019-03-20T12:59:31.099Z,8.60
2019-03-20T13:02:01.647Z,10.13
2019-03-20T13:04:32.224Z,22.23
2019-03-20T13:07:02.804Z,10.73
2019-03-20T13:09:33.133Z,17.40
2019-03-20T13:12:03.590Z,22.10
2019-03-20T13:14:34.045Z,83.53
2019-03-20T13:17:04.460Z,92.10
2019-03-20T13:19:35.008Z,18.93
2019-03-20T13:22:05.665Z,8.00
2019-03-20T13:24:36.179Z,10.03
2019-03-20T13:27:07.023Z,13.73
2019-03-20T13:29:37.605Z,11.80
2019-03-20T13:32:08.309Z,14.23
2019-03-20T13:34:38.956Z,12.47
2019-03-20T13:37:09.421Z,9.53
2019-03-20T13:39:40.094Z,9.37
2019-03-20T13:42:10.700Z,9.73
2019-03-20T13:44:41.106Z,6.87
2019-03-20T13:47:11.659Z,10.83
2019-03-20T13:49:42.140Z,6.27
2019-03-20T13:52:12.810Z,5.87
2019-03-20T13:54:43.315Z,6.57
2019-03-20T13:57:13.794Z,7.20
2019-03-20T13:59:44.340Z,11.97
2019-03-20T14:02:15.020Z,8.00
2019-03-20T14:04:45.508Z,9.57
2019-03-20T14:07:16.008Z,9.27
2019-03-20T14:09:46.595Z,8.30
2019-03-20T14:12:17.109Z,9.87
2019-03-20T14:14:47.659Z,10.00
2019-03-20T14:17:18.189Z,7.93
2019-03-20T14:19:48.590Z,5.97
2019-03-20T14:22:19.207Z,11.63
2019-03-20T14:24:49.664Z,10.17
2019-03-20T14:27:20.364Z,12.13
2019-03-20T14:29:51.747Z,9.60
2019-03-20T14:32:22.546Z,10.13
2019-03-20T14:34:53.139Z,13.23
2019-03-20T14:37:23.633Z,9.33
2019-03-20T14:39:54.088Z,12.80
2019-03-20T14:42:24.787Z,13.03
2019-03-20T14:44:55.406Z,6.60
2019-03-20T14:47:25.922Z,12.50
2019-03-20T14:49:56.503Z,7.30
2019-03-20T14:52:30.670Z,5.77
2019-03-20T14:55:01.103Z,5.97
2019-03-20T14:57:31.703Z,10.60
2019-03-20T15:00:02.160Z,13.87
2019-03-20T15:02:32.848Z,7.50
2019-03-20T15:05:03.336Z,4.53
2019-03-20T15:07:33.859Z,6.50
2019-03-20T15:10:04.827Z,6.70
2019-03-20T15:12:35.618Z,7.20
2019-03-20T15:15:20.133Z,9.17
2019-03-20T15:17:50.715Z,4.17
2019-03-20T15:20:21.340Z,9.00
2019-03-20T15:22:51.960Z,7.47
2019-03-20T15:25:22.644Z,5.17
2019-03-20T15:27:53.168Z,9.73
2019-03-20T15:30:24.188Z,7.03
2019-03-20T15:32:54.719Z,7.87
2019-03-20T15:35:25.277Z,9.53
2019-03-20T15:37:55.998Z,11.37
2019-03-20T15:40:26.929Z,7.80
2019-03-20T15:42:57.749Z,4.63
2019-03-20T15:45:28.375Z,9.30
2019-03-20T15:47:58.869Z,6.93
2019-03-20T15:50:29.964Z,5.93
2019-03-20T15:53:00.507Z,9.43
2019-03-20T15:55:32.014Z,6.30
2019-03-20T15:58:02.756Z,7.80
2019-03-20T16:00:33.309Z,6.20
2019-03-20T16:03:08.387Z,6.60
2019-03-20T16:05:38.984Z,10.00
2019-03-20T16:08:09.983Z,9.90
2019-03-20T16:10:40.844Z,6.47
2019-03-20T16:13:11.539Z,8.63
2019-03-20T16:15:42.112Z,9.73
2019-03-20T16:18:12.798Z,7.53
2019-03-20T16:20:43.543Z,11.97
2019-03-20T16:23:14.146Z,8.57
2019-03-20T16:25:45.362Z,6.43
2019-03-20T16:28:15.923Z,8.33
2019-03-20T16:30:46.634Z,8.13
2019-03-20T16:33:17.114Z,8.27
2019-03-20T16:35:47.728Z,10.80
2019-03-20T16:38:19.321Z,13.13
2019-03-20T16:40:49.963Z,14.13
2019-03-20T16:43:20.533Z,17.20
2019-03-20T16:45:51.108Z,17.83
2019-03-20T16:48:21.789Z,16.20
2019-03-20T16:50:52.325Z,14.17
2019-03-20T16:53:23.070Z,19.73
2019-03-20T16:55:53.699Z,18.90
2019-03-20T16:58:24.200Z,10.77
2019-03-20T17:00:58.774Z,23.13
2019-03-20T17:03:29.779Z,11.47
2019-03-20T17:06:01.564Z,15.80
2019-03-20T17:08:35.375Z,9.97
2019-03-20T17:11:08.687Z,15.03
2019-03-20T17:13:39.384Z,18.83
2019-03-20T17:16:10.004Z,11.43
2019-03-20T17:18:40.624Z,19.60
2019-03-20T17:21:12.565Z,21.20
2019-03-20T17:23:44.488Z,20.73
2019-03-20T17:26:15.519Z,21.40
2019-03-20T17:28:48.118Z,24.60
2019-03-20T17:31:21.839Z,21.83
2019-03-20T17:33:53.632Z,22.07
2019-03-20T17:36:24.569Z,22.27
2019-03-20T17:38:55.187Z,23.97
2019-03-20T17:41:36.586Z,25.60
2019-03-20T17:44:05.629Z,37.27
2019-03-20T17:46:37.374Z,29.07
2019-03-20T17:49:09.068Z,29.47
2019-03-20T17:51:39.696Z,32.67
2019-03-20T17:54:10.479Z,32.20
2019-03-20T17:56:41.043Z,42.57
2019-03-20T17:59:13.343Z,47.20
2019-03-20T18:01:44.145Z,54.77
2019-03-20T18:04:16.045Z,62.00
2019-03-20T18:06:46.888Z,55.50
2019-03-20T18:09:19.987Z,58.77
2019-03-20T18:11:54.089Z,60.60
2019-03-20T18:14:26.988Z,54.67
2019-03-20T18:16:57.704Z,60.00
2019-03-20T18:19:31.295Z,74.03
2019-03-20T18:22:01.914Z,71.67
2019-03-20T18:24:35.308Z,64.30
2019-03-20T18:27:06.251Z,68.13
2019-03-20T18:29:38.913Z,56.17
2019-03-20T18:32:14.052Z,52.17
2019-03-20T18:34:49.938Z,47.80
2019-03-20T18:37:25.353Z,45.10
2019-03-20T18:39:58.458Z,48.47
2019-03-20T18:42:33.515Z,51.63
2019-03-20T18:45:07.620Z,51.07
2019-03-20T18:47:45.353Z,47.47
2019-03-20T18:50:19.676Z,50.10
2019-03-20T18:52:53.095Z,57.67
2019-03-20T18:55:24.812Z,69.27
2019-03-20T18:58:01.108Z,70.40
2019-03-20T19:00:34.218Z,64.37
2019-03-20T19:03:13.750Z,66.37
2019-03-20T19:05:59.752Z,68.97
2019-03-20T19:08:41.214Z,77.33
2019-03-20T19:11:11.997Z,156.50
2019-03-20T19:13:44.915Z,165.57
2019-03-20T19:16:15.648Z,166.83
2019-03-20T19:18:50.859Z,128.13
2019-03-20T19:21:21.740Z,161.23
2019-03-20T19:23:56.700Z,111.23
2019-03-20T19:26:27.355Z,110.93
2019-03-20T19:29:03.247Z,85.90
2019-03-20T19:31:34.910Z,80.20
2019-03-20T19:34:13.103Z,70.23
2019-03-20T19:36:47.343Z,70.43
2019-03-20T19:39:33.224Z,59.37
2019-03-20T19:42:04.968Z,58.03
2019-03-20T19:44:45.108Z,66.47
2019-03-20T19:47:16.223Z,76.53
2019-03-20T19:49:50.368Z,92.30
2019-03-20T19:52:32.670Z,80.17
2019-03-20T19:55:18.645Z,87.90
2019-03-20T19:57:51.635Z,97.13
2019-03-20T20:00:23.809Z,111.80
2019-03-20T20:02:57.117Z,102.43
2019-03-20T20:05:30.324Z,105.27
2019-03-20T20:08:04.607Z,92.50
2019-03-20T20:10:42.261Z,77.40
2019-03-20T20:13:15.029Z,82.40
2019-03-20T20:15:47.690Z,77.07
2019-03-20T20:18:22.479Z,93.33
2019-03-20T20:21:12.214Z,85.00
2019-03-20T20:23:44.118Z,82.70
2019-03-20T20:26:15.174Z,80.27
2019-03-20T20:28:45.950Z,68.60
2019-03-20T20:31:19.750Z,68.40
2019-03-20T20:33:54.688Z,70.93
2019-03-20T20:36:28.926Z,77.30
2019-03-20T20:39:07.253Z,60.80
2019-03-20T20:41:38.258Z,103.37
2019-03-20T20:44:13.637Z,91.13
2019-03-20T20:46:49.837Z,89.63
2019-03-20T20:49:22.678Z,95.40
2019-03-20T20:51:53.741Z,86.17
2019-03-20T20:54:28.377Z,88.20
2019-03-20T20:56:58.998Z,79.07
2019-03-20T20:59:30.708Z,82.33
2019-03-20T21:02:01.471Z,77.80
2019-03-20T21:04:32.209Z,65.17
2019-03-20T21:07:03.893Z,79.53
2019-03-20T21:09:34.630Z,88.37
2019-03-20T21:12:05.793Z,76.27
2019-03-20T21:14:36.483Z,98.17
2019-03-20T21:17:12.727Z,124.50
2019-03-20T21:19:45.438Z,91.07
2019-03-20T21:23:13.395Z,83.63
2019-03-20T21:25:44.804Z,68.73
2019-03-20T21:29:12.681Z,70.57
2019-03-20T21:31:53.719Z,68.47
2019-03-20T21:35:21.580Z,73.13
2019-03-20T21:38:17.300Z,75.57
2019-03-20T21:41:45.252Z,72.77
2019-03-20T21:45:07.174Z,77.80
2019-03-20T21:47:36.394Z,98.70
2019-03-20T21:51:04.885Z,159.20
2019-03-20T21:54:07.453Z,143.33
2019-03-20T21:56:42.718Z,125.47
2019-03-20T21:59:41.089Z,121.60
2019-03-20T22:02:50.183Z,109.47
2019-03-20T22:05:47.334Z,85.37
2019-03-20T22:08:18.529Z,92.53
2019-03-20T22:11:46.433Z,94.87
2019-03-20T22:14:18.421Z,95.93
2019-03-20T22:17:50.992Z,97.70
2019-03-20T22:20:49.215Z,97.43
2019-03-20T22:24:17.157Z,93.17
2019-03-20T22:27:39.964Z,87.40
2019-03-20T22:30:11.567Z,76.57
2019-03-20T22:33:39.512Z,76.53
2019-03-20T22:36:20.954Z,84.67
2019-03-20T22:39:42.393Z,78.03
2019-03-20T22:42:50.854Z,72.50
2019-03-20T22:46:12.604Z,74.80
2019-03-20T22:49:12.214Z,84.77
2019-03-20T22:52:27.145Z,100.17
2019-03-20T22:55:31.102Z,99.53
2019-03-20T22:58:50.323Z,107.13
2019-03-20T23:01:44.018Z,118.60
2019-03-20T23:04:28.024Z,110.53
2019-03-20T23:06:59.368Z,114.03
2019-03-20T23:09:30.769Z,114.10
2019-03-20T23:12:05.908Z,122.13
2019-03-20T23:14:37.188Z,107.27
2019-03-20T23:17:08.587Z,108.03
2019-03-20T23:19:41.271Z,102.37
2019-03-20T23:22:13.249Z,93.10
2019-03-20T23:24:45.729Z,91.10
2019-03-20T23:27:22.782Z,101.33
2019-03-20T23:29:54.115Z,95.87
2019-03-20T23:32:25.835Z,97.47
2019-03-20T23:34:57.099Z,105.70
2019-03-20T23:37:28.615Z,121.63
2019-03-20T23:40:00.028Z,116.60
2019-03-20T23:42:31.580Z,98.63
2019-03-20T23:45:02.889Z,110.20
2019-03-20T23:47:59.728Z,99.80
2019-03-20T23:50:31.060Z,98.10
2019-03-20T23:53:02.392Z,100.57
2019-03-20T23:55:33.874Z,98.93
2019-03-20T23:58:05.313Z,89.80
